createdAt,value
2019-04-28T00:30:05.387Z,12.60
2019-04-28T00:32:39.628Z,12.80
2019-04-28T00:35:13.929Z,12.80
2019-04-28T00:37:45.493Z,12.70
2019-04-28T00:40:21.669Z,12.50
2019-04-28T00:42:51.451Z,12.40
2019-04-28T01:20:35.548Z,12.80
2019-04-28T01:23:34.410Z,12.20
2019-04-28T01:26:16.443Z,12.20
2019-04-28T01:30:43.183Z,12.40
2019-04-28T01:31:44.344Z,11.80
2019-04-28T01:34:30.625Z,12.90
2019-04-28T01:36:59.784Z,12.50
2019-04-28T01:42:30.235Z,12.10
2019-04-28T01:45:04.530Z,12.50
2019-04-28T01:47:37.044Z,11.60
2019-04-28T01:50:12.579Z,12.10
2019-04-28T01:52:42.692Z,12.80
2019-04-28T01:55:16.968Z,12.70
2019-04-28T01:57:49.789Z,12.50
2019-04-28T02:03:00.403Z,12.30
2019-04-28T02:10:53.581Z,12.50
2019-04-28T02:13:23.500Z,12.30
2019-04-28T02:15:53.498Z,13.00
2019-04-28T02:18:26.157Z,12.20
2019-04-28T02:21:09.659Z,12.10
2019-04-28T02:23:39.746Z,12.10
2019-04-28T02:26:09.761Z,12.30
2019-04-28T02:28:40.734Z,12.00
2019-04-28T02:31:11.478Z,12.30
2019-04-28T02:33:41.314Z,12.40
2019-04-28T02:36:14.066Z,12.90
2019-04-28T02:38:45.862Z,12.00
2019-04-28T02:41:15.791Z,12.20
2019-04-28T02:44:04.637Z,12.50
2019-04-28T02:46:34.748Z,12.50
2019-04-28T02:49:14.827Z,11.50
2019-04-28T02:52:03.202Z,12.40
2019-04-28T02:54:40.906Z,13.00
2019-04-28T02:57:21.130Z,12.40
2019-04-28T02:59:51.376Z,11.70
2019-04-28T03:02:21.320Z,12.00
2019-04-28T03:04:51.115Z,12.50
2019-04-28T03:07:21.788Z,12.50
2019-04-28T03:09:52.490Z,12.50
2019-04-28T03:12:22.406Z,12.20
2019-04-28T03:14:52.186Z,12.10
2019-04-28T03:17:22.038Z,12.50
2019-04-28T03:19:51.936Z,12.30
2019-04-28T03:22:22.821Z,11.30
2019-04-28T03:24:54.453Z,12.00
2019-04-28T03:27:34.044Z,12.10
2019-04-28T03:30:25.692Z,12.10
2019-04-28T03:33:04.989Z,13.10
2019-04-28T03:35:27.082Z,11.90
2019-04-28T03:37:57.925Z,12.00
2019-04-28T03:48:01.814Z,12.20
2019-04-28T03:50:31.795Z,11.90
2019-04-28T03:53:03.932Z,12.00
2019-04-28T03:55:34.995Z,12.70
2019-04-28T03:58:05.025Z,12.30
2019-04-28T04:00:34.740Z,13.10
2019-04-28T04:03:04.462Z,12.10
2019-04-28T04:05:34.582Z,12.30
2019-04-28T04:08:04.417Z,12.40
2019-04-28T04:11:00.268Z,12.30
2019-04-28T04:13:41.509Z,12.10
2019-04-28T04:16:26.488Z,12.20
2019-04-28T04:19:00.511Z,12.10
2019-04-28T04:21:31.888Z,12.60
2019-04-28T04:24:01.694Z,12.20
2019-04-28T04:26:51.766Z,12.40
2019-04-28T04:29:21.812Z,12.80
2019-04-28T04:31:51.697Z,12.40
2019-04-28T04:34:21.392Z,13.40
2019-04-28T04:39:22.025Z,12.30
2019-04-28T04:54:22.503Z,12.50
2019-04-28T04:56:53.367Z,12.70
2019-04-28T04:59:24.665Z,12.50
2019-04-28T05:04:53.663Z,12.90
2019-04-28T05:07:23.387Z,12.50
2019-04-28T05:12:22.185Z,12.90
2019-04-28T05:17:22.239Z,12.60
2019-04-28T05:19:52.178Z,12.50
2019-04-28T05:22:23.466Z,12.60
2019-04-28T05:25:02.838Z,12.50
2019-04-28T05:27:34.939Z,12.40
2019-04-28T05:30:05.588Z,12.80
2019-04-28T05:33:06.053Z,12.50
2019-04-28T05:38:16.759Z,12.90
2019-04-28T05:40:46.669Z,12.80
2019-04-28T05:45:54.213Z,13.80
2019-04-28T05:48:47.165Z,13.20
2019-04-28T05:52:01.952Z,13.20
2019-04-28T05:56:36.828Z,12.30
2019-04-28T05:57:41.686Z,12.70
2019-04-28T06:00:46.521Z,13.00
2019-04-28T06:03:30.138Z,14.10
2019-04-28T06:06:06.408Z,12.80
2019-04-28T06:09:00.362Z,13.70
2019-04-28T06:14:45.413Z,13.60
2019-04-28T06:17:46.931Z,14.00
2019-04-28T06:23:14.368Z,13.50
2019-04-28T06:25:33.311Z,13.70
2019-04-28T06:30:36.761Z,13.60
2019-04-28T06:33:08.389Z,14.20
2019-04-28T06:35:39.520Z,13.90
2019-04-28T06:50:57.547Z,15.20
2019-04-28T06:56:00.591Z,14.20
2019-04-28T07:02:06.013Z,14.80
2019-04-28T07:04:36.019Z,13.80
2019-04-28T07:07:07.557Z,14.10
2019-04-28T07:09:37.277Z,14.40
2019-04-28T07:14:38.177Z,13.40
2019-04-28T07:23:00.536Z,13.90
2019-04-28T07:25:30.641Z,14.50
2019-04-28T07:28:21.467Z,14.00
2019-04-28T07:30:51.143Z,14.20
2019-04-28T07:33:21.476Z,14.60
2019-04-28T07:35:51.193Z,14.70
2019-04-28T07:38:22.425Z,15.60
2019-04-28T07:40:52.089Z,14.90
2019-04-28T07:43:22.113Z,15.20
2019-04-28T07:46:02.975Z,14.80
2019-04-28T07:48:33.529Z,14.50
2019-04-28T07:51:05.471Z,14.80
2019-04-28T07:53:46.570Z,15.10
2019-04-28T07:56:18.753Z,15.10
2019-04-28T07:58:48.606Z,15.00
2019-04-28T08:06:59.421Z,15.00
2019-04-28T08:10:20.935Z,14.60
2019-04-28T08:18:35.424Z,15.40
2019-04-28T08:21:14.219Z,15.50
2019-04-28T08:26:45.055Z,15.70
2019-04-28T08:35:13.495Z,15.60
2019-04-28T08:37:43.254Z,16.00
2019-04-28T08:40:31.351Z,15.50
2019-04-28T08:57:39.321Z,15.90
2019-04-28T09:03:39.369Z,15.60
2019-04-28T09:06:10.942Z,16.20
2019-04-28T09:08:45.219Z,16.20
2019-04-28T09:11:41.777Z,16.00
2019-04-28T09:14:11.557Z,15.70
2019-04-28T09:16:41.700Z,15.20
2019-04-28T09:19:11.444Z,16.80
2019-04-28T09:21:42.467Z,15.50
2019-04-28T09:24:16.719Z,16.20
2019-04-28T09:26:46.898Z,16.70
2019-04-28T09:29:21.721Z,16.00
2019-04-28T09:31:51.566Z,16.10
2019-04-28T09:34:28.637Z,15.20
2019-04-28T09:36:57.428Z,15.90
2019-04-28T09:39:47.463Z,15.70
2019-04-28T09:42:36.548Z,15.20
2019-04-28T09:45:11.221Z,15.60
2019-04-28T09:47:41.135Z,16.00
2019-04-28T09:50:15.445Z,15.80
2019-04-28T09:52:48.731Z,16.30
2019-04-28T09:55:20.982Z,16.30
2019-04-28T10:00:21.134Z,16.00
2019-04-28T10:07:59.031Z,16.10
2019-04-28T10:10:31.940Z,16.20
2019-04-28T10:13:04.782Z,16.70
2019-04-28T10:18:03.933Z,16.40
2019-04-28T10:23:09.033Z,16.70
2019-04-28T10:25:40.819Z,16.70
2019-04-28T10:28:10.914Z,17.50
2019-04-28T10:30:43.689Z,16.70
2019-04-28T10:38:15.293Z,17.20
2019-04-28T10:43:45.430Z,16.80
2019-04-28T10:53:46.664Z,16.50
2019-04-28T10:56:16.107Z,17.10
2019-04-28T10:58:48.948Z,16.70
2019-04-28T11:01:20.823Z,16.80
2019-04-28T11:03:52.207Z,16.80
2019-04-28T11:06:24.563Z,16.90
2019-04-28T11:09:03.692Z,16.50
2019-04-28T11:11:36.183Z,16.60
2019-04-28T11:14:06.092Z,16.70
2019-04-28T11:16:36.023Z,16.90
2019-04-28T11:19:07.916Z,16.80
2019-04-28T11:21:38.420Z,16.80
2019-04-28T11:24:08.893Z,16.60
2019-04-28T11:26:40.912Z,16.80
2019-04-28T11:29:10.195Z,16.30
2019-04-28T11:41:56.053Z,16.40
2019-04-28T11:44:26.031Z,16.60
2019-04-28T11:46:55.829Z,16.70
2019-04-28T11:49:27.550Z,16.80
2019-04-28T11:51:59.397Z,16.30
2019-04-28T11:54:29.309Z,16.30
2019-04-28T11:56:59.076Z,16.10
2019-04-28T11:59:30.477Z,16.10
2019-04-28T12:02:01.973Z,16.00
2019-04-28T12:04:31.723Z,16.30
2019-04-28T12:07:01.865Z,16.10
2019-04-28T12:10:03.364Z,16.70
2019-04-28T12:12:45.696Z,16.10
2019-04-28T12:18:26.806Z,16.10
2019-04-28T12:22:24.362Z,16.30
2019-04-28T12:24:08.414Z,16.40
2019-04-28T12:27:01.112Z,15.80
2019-04-28T12:29:38.414Z,16.20
2019-04-28T12:32:10.630Z,15.60
2019-04-28T12:34:40.618Z,15.70
2019-04-28T12:37:11.375Z,15.20
2019-04-28T12:39:41.444Z,15.30
2019-04-28T12:42:11.175Z,16.00
2019-04-28T12:44:41.253Z,15.00
2019-04-28T12:47:33.035Z,15.30
2019-04-28T12:53:07.193Z,15.00
2019-04-28T12:58:06.269Z,14.80
2019-04-28T13:01:05.264Z,15.60
2019-04-28T13:04:33.070Z,15.10
2019-04-28T13:06:43.865Z,15.10
2019-04-28T13:14:27.490Z,15.10
2019-04-28T13:16:57.427Z,15.00
2019-04-28T13:19:27.741Z,15.60
2019-04-28T13:21:57.927Z,15.50
2019-04-28T13:24:28.224Z,15.20
2019-04-28T13:29:27.043Z,16.00
2019-04-28T13:34:29.658Z,15.00
2019-04-28T13:36:59.438Z,15.20
2019-04-28T13:39:38.692Z,15.20
2019-04-28T13:45:15.578Z,15.40
2019-04-28T13:50:36.678Z,15.40
2019-04-28T13:53:07.497Z,15.20
2019-04-28T13:58:48.869Z,15.40
2019-04-28T14:01:36.592Z,15.60
2019-04-28T14:04:28.400Z,15.00
2019-04-28T14:07:04.941Z,14.80
2019-04-28T14:12:08.812Z,15.40
2019-04-28T14:22:27.571Z,15.30
2019-04-28T14:25:04.631Z,15.30
2019-04-28T14:27:34.832Z,15.50
2019-04-28T14:30:08.798Z,14.60
2019-04-28T14:32:41.743Z,15.10
2019-04-28T14:35:23.368Z,14.50
2019-04-28T14:37:56.823Z,15.00
2019-04-28T14:40:33.487Z,15.20
2019-04-28T14:45:46.411Z,15.10
2019-04-28T14:53:17.632Z,14.50
2019-04-28T14:58:22.054Z,14.90
2019-04-28T15:01:37.403Z,14.60
2019-04-28T15:06:56.100Z,14.40
2019-04-28T15:09:43.338Z,14.20
2019-04-28T15:12:37.262Z,13.70
2019-04-28T15:15:14.958Z,14.50
2019-04-28T15:21:34.744Z,14.60
2019-04-28T15:24:08.731Z,14.60
2019-04-28T15:30:06.473Z,14.60
2019-04-28T15:32:52.674Z,14.20
2019-04-28T15:39:11.166Z,14.50
2019-04-28T15:48:08.944Z,14.20
2019-04-28T15:52:58.562Z,14.60
2019-04-28T16:00:56.513Z,13.90
2019-04-28T16:03:26.443Z,14.40
2019-04-28T16:06:00.036Z,13.70
2019-04-28T16:08:39.439Z,14.10
2019-04-28T16:11:09.359Z,14.10
2019-04-28T16:13:40.707Z,13.70
2019-04-28T16:16:10.526Z,14.30
2019-04-28T16:18:41.264Z,14.00
2019-04-28T16:21:10.990Z,14.20
2019-04-28T16:23:40.975Z,14.00
2019-04-28T16:26:11.059Z,14.10
2019-04-28T16:28:40.698Z,14.40
2019-04-28T16:33:39.556Z,14.00
2019-04-28T16:36:09.225Z,13.70
2019-04-28T16:38:39.036Z,13.50
2019-04-28T16:41:12.068Z,14.30
2019-04-28T16:43:48.331Z,13.40
2019-04-28T16:46:19.146Z,13.40
2019-04-28T16:48:48.993Z,13.00
2019-04-28T16:51:18.873Z,13.00
2019-04-28T16:53:48.778Z,13.50
2019-04-28T16:56:42.520Z,13.00
2019-04-28T16:59:36.565Z,12.50
2019-04-28T17:02:11.278Z,12.90
2019-04-28T17:07:11.722Z,12.70
2019-04-28T17:12:10.458Z,12.80
2019-04-28T17:14:40.383Z,13.30
2019-04-28T17:17:11.606Z,13.10
2019-04-28T17:19:41.429Z,13.00
2019-04-28T17:24:40.398Z,13.30
2019-04-28T17:27:10.592Z,12.60
2019-04-28T17:29:40.616Z,12.40
2019-04-28T17:32:10.331Z,13.00
2019-04-28T17:34:40.388Z,12.60
2019-04-28T17:37:10.241Z,13.00
2019-04-28T17:39:45.098Z,13.00
2019-04-28T17:45:00.260Z,13.60
2019-04-28T17:52:37.240Z,12.70
2019-04-28T17:57:38.378Z,12.20
2019-04-28T18:03:19.809Z,12.60
2019-04-28T18:05:58.270Z,12.90
2019-04-28T18:08:28.112Z,13.50
2019-04-28T18:10:59.767Z,12.30
2019-04-28T18:13:29.679Z,12.50
2019-04-28T18:16:36.952Z,12.40
2019-04-28T18:19:09.657Z,13.00
2019-04-28T18:21:40.745Z,12.90
2019-04-28T18:24:10.438Z,12.40
2019-04-28T18:26:41.589Z,12.40
2019-04-28T18:31:59.578Z,12.70
2019-04-28T18:37:41.247Z,12.50
2019-04-28T18:40:30.063Z,12.70
2019-04-28T18:43:22.769Z,13.00
2019-04-28T18:45:52.493Z,12.40
2019-04-28T18:48:22.194Z,12.90
2019-04-28T18:50:51.960Z,12.60
2019-04-28T18:53:21.845Z,12.50
2019-04-28T18:55:51.973Z,12.80
2019-04-28T18:58:21.626Z,12.70
2019-04-28T19:01:02.991Z,13.20
2019-04-28T19:03:38.766Z,12.10
2019-04-28T19:06:08.953Z,13.30
2019-04-28T19:08:49.931Z,13.30
2019-04-28T19:11:42.755Z,12.60
2019-04-28T19:17:09.836Z,12.30
2019-04-28T19:19:41.114Z,12.60
2019-04-28T19:22:11.005Z,12.50
2019-04-28T19:24:40.865Z,12.60
2019-04-28T19:29:40.140Z,12.60
2019-04-28T19:32:10.094Z,12.20
2019-04-28T19:34:42.670Z,11.90
2019-04-28T19:37:12.475Z,12.10
2019-04-28T19:39:42.299Z,12.10
2019-04-28T19:42:12.087Z,12.30
2019-04-28T19:44:42.988Z,12.40
2019-04-28T19:49:43.274Z,12.30
2019-04-28T19:52:13.007Z,12.60
2019-04-28T19:55:01.712Z,12.00
2019-04-28T19:57:38.508Z,12.00
2019-04-28T20:00:27.245Z,12.00
2019-04-28T20:02:56.955Z,12.20
2019-04-28T20:05:26.691Z,12.50
2019-04-28T20:07:56.661Z,11.80
2019-04-28T20:10:26.393Z,11.80
2019-04-28T20:17:56.335Z,11.90
2019-04-28T20:28:01.627Z,12.20
2019-04-28T20:33:06.861Z,12.40
2019-04-28T20:35:35.040Z,12.10
2019-04-28T20:38:14.360Z,12.00
2019-04-28T20:40:59.058Z,11.60
2019-04-28T20:45:57.967Z,12.10
2019-04-28T20:48:27.715Z,11.80
2019-04-28T20:50:57.361Z,11.70
2019-04-28T20:53:27.091Z,12.10
2019-04-28T20:55:56.761Z,12.00
2019-04-28T20:58:28.729Z,11.70
2019-04-28T21:00:58.517Z,12.30
2019-04-28T21:03:28.185Z,12.00
2019-04-28T21:05:57.988Z,12.30
2019-04-28T21:08:27.709Z,11.90
2019-04-28T21:10:57.555Z,11.80
2019-04-28T21:13:27.546Z,11.90
2019-04-28T21:15:57.179Z,11.90
2019-04-28T21:18:26.951Z,12.00
2019-04-28T21:20:56.785Z,12.20
2019-04-28T21:23:26.571Z,12.00
2019-04-28T21:25:56.331Z,11.70
2019-04-28T21:28:26.096Z,11.20
2019-04-28T21:30:55.824Z,11.60
2019-04-28T21:33:25.642Z,12.70
2019-04-28T21:35:56.599Z,12.10
2019-04-28T21:38:26.440Z,12.50
2019-04-28T21:40:56.757Z,12.40
2019-04-28T21:43:51.481Z,12.00
2019-04-28T21:46:43.097Z,11.20
2019-04-28T21:51:58.092Z,11.60
2019-04-28T21:54:27.916Z,11.70
2019-04-28T21:56:57.736Z,12.20
2019-04-28T21:59:27.682Z,11.90
2019-04-28T22:01:57.464Z,12.20
2019-04-28T22:04:29.409Z,12.00
2019-04-28T22:07:00.829Z,12.10
2019-04-28T22:09:30.557Z,11.90
2019-04-28T22:12:01.616Z,12.20
2019-04-28T22:14:31.324Z,12.30
2019-04-28T22:17:01.105Z,12.20
2019-04-28T22:19:54.731Z,12.30
2019-04-28T22:22:24.767Z,11.60
2019-04-28T22:25:14.059Z,12.40
2019-04-28T22:27:46.041Z,12.10
2019-04-28T22:30:16.166Z,12.20
2019-04-28T22:32:45.988Z,12.00
2019-04-28T22:35:15.867Z,12.40
2019-04-28T22:37:45.663Z,12.30
2019-04-28T22:40:16.414Z,12.40
2019-04-28T22:42:46.140Z,11.90
2019-04-28T22:45:15.973Z,12.30
2019-04-28T22:47:46.052Z,12.50
2019-04-28T22:50:44.861Z,11.30
2019-04-28T22:53:16.177Z,11.40
2019-04-28T22:55:51.391Z,12.00
2019-04-28T23:06:16.222Z,12.50
2019-04-28T23:11:15.088Z,12.10
2019-04-28T23:13:46.053Z,13.10
2019-04-28T23:16:15.974Z,12.50
2019-04-28T23:18:45.734Z,12.90
2019-04-28T23:21:25.579Z,13.40
2019-04-28T23:23:55.411Z,12.10
2019-04-28T23:26:25.058Z,13.00
2019-04-28T23:31:23.767Z,12.20
2019-04-28T23:36:24.133Z,12.20
2019-04-28T23:38:53.895Z,12.20
2019-04-28T23:41:30.953Z,12.10
2019-04-28T23:44:00.646Z,12.20
2019-04-28T23:46:48.071Z,12.30
2019-04-28T23:49:17.816Z,12.40
2019-04-28T23:51:55.278Z,12.70
2019-04-28T23:54:25.210Z,11.90
2019-04-28T23:56:57.900Z,12.20
2019-04-28T23:59:30.314Z,12.70
